sensor_id;sensor_type;location;lat;lon;timestamp;pressure;altitude;pressure_sealevel;temperature;humidity
804;BME280;25687;49.976;8.240;2023-04-06T00:01:25;100403.50;;;1.30;100.00
804;BME280;25687;49.976;8.240;2023-04-06T00:03:51;100401.03;;;1.27;100.00
804;BME280;25687;49.976;8.240;2023-04-06T00:06:16;100403.59;;;1.25;100.00
804;BME280;25687;49.976;8.240;2023-04-06T00:08:41;100394.38;;;1.18;100.00
804;BME280;25687;49.976;8.240;2023-04-06T00:11:07;100395.25;;;1.12;100.00
804;BME280;25687;49.976;8.240;2023-04-06T00:13:32;100394.53;;;1.04;100.00
804;BME280;25687;49.976;8.240;2023-04-06T00:15:57;100395.44;;;0.95;100.00
804;BME280;25687;49.976;8.240;2023-04-06T00:18:23;100389.63;;;0.87;100.00
804;BME280;25687;49.976;8.240;2023-04-06T00:20:48;100391.41;;;0.77;100.00
804;BME280;25687;49.976;8.240;2023-04-06T00:23:14;100393.09;;;0.75;100.00
804;BME280;25687;49.976;8.240;2023-04-06T00:25:39;100387.28;;;0.67;100.00
804;BME280;25687;49.976;8.240;2023-04-06T00:28:04;100391.53;;;0.63;100.00
804;BME280;25687;49.976;8.240;2023-04-06T00:30:30;100397.50;;;0.53;100.00
804;BME280;25687;49.976;8.240;2023-04-06T00:32:55;100395.88;;;0.49;100.00
804;BME280;25687;49.976;8.240;2023-04-06T00:35:20;100393.41;;;0.41;100.00
804;BME280;25687;49.976;8.240;2023-04-06T00:37:46;100390.03;;;0.39;100.00
804;BME280;25687;49.976;8.240;2023-04-06T00:40:13;100381.66;;;0.31;100.00
804;BME280;25687;49.976;8.240;2023-04-06T00:42:38;100380.00;;;0.27;100.00
804;BME280;25687;49.976;8.240;2023-04-06T00:45:04;100375.00;;;0.24;100.00
804;BME280;25687;49.976;8.240;2023-04-06T00:47:29;100369.94;;;0.21;100.00
804;BME280;25687;49.976;8.240;2023-04-06T00:49:55;100371.72;;;0.09;100.00
804;BME280;25687;49.976;8.240;2023-04-06T00:52:20;100375.94;;;0.07;100.00
804;BME280;25687;49.976;8.240;2023-04-06T00:54:46;100365.03;;;0.01;100.00
804;BME280;25687;49.976;8.240;2023-04-06T00:57:12;100360.00;;;-0.06;100.00
804;BME280;25687;49.976;8.240;2023-04-06T00:59:38;100370.13;;;-0.09;100.00
804;BME280;25687;49.976;8.240;2023-04-06T01:02:03;100366.06;;;-0.28;100.00
804;BME280;25687;49.976;8.240;2023-04-06T01:04:29;100368.53;;;-0.22;100.00
804;BME280;25687;49.976;8.240;2023-04-06T01:06:54;100367.72;;;-0.26;100.00
804;BME280;25687;49.976;8.240;2023-04-06T01:09:20;100361.00;;;-0.31;100.00
804;BME280;25687;49.976;8.240;2023-04-06T01:11:46;100362.66;;;-0.27;100.00
804;BME280;25687;49.976;8.240;2023-04-06T01:14:11;100355.09;;;-0.26;100.00
804;BME280;25687;49.976;8.240;2023-04-06T01:16:37;100356.75;;;-0.25;100.00
804;BME280;25687;49.976;8.240;2023-04-06T01:19:09;100361.84;;;-0.33;100.00
804;BME280;25687;49.976;8.240;2023-04-06T01:21:36;100351.72;;;-0.25;100.00
804;BME280;25687;49.976;8.240;2023-04-06T01:24:02;100352.56;;;-0.29;100.00
804;BME280;25687;49.976;8.240;2023-04-06T01:26:27;100347.50;;;-0.34;100.00
804;BME280;25687;49.976;8.240;2023-04-06T01:28:54;100348.38;;;-0.36;100.00
804;BME280;25687;49.976;8.240;2023-04-06T01:31:20;100345.88;;;-0.42;100.00
804;BME280;25687;49.976;8.240;2023-04-06T01:33:45;100352.66;;;-0.44;100.00
804;BME280;25687;49.976;8.240;2023-04-06T01:36:11;100344.25;;;-0.48;100.00
804;BME280;25687;49.976;8.240;2023-04-06T01:38:36;100345.09;;;-0.51;100.00
804;BME280;25687;49.976;8.240;2023-04-06T01:41:01;100345.13;;;-0.57;100.00
804;BME280;25687;49.976;8.240;2023-04-06T01:43:26;100345.97;;;-0.61;100.00
804;BME280;25687;49.976;8.240;2023-04-06T01:45:52;100341.81;;;-0.67;100.00
804;BME280;25687;49.976;8.240;2023-04-06T01:48:17;100332.56;;;-0.69;100.00
804;BME280;25687;49.976;8.240;2023-04-06T01:50:42;100336.72;;;-0.65;100.00
804;BME280;25687;49.976;8.240;2023-04-06T01:53:08;100331.75;;;-0.74;100.00
804;BME280;25687;49.976;8.240;2023-04-06T01:55:33;100337.59;;;-0.72;100.00
804;BME280;25687;49.976;8.240;2023-04-06T01:57:58;100331.72;;;-0.73;100.00
804;BME280;25687;49.976;8.240;2023-04-06T02:00:24;100329.22;;;-0.84;100.00
804;BME280;25687;49.976;8.240;2023-04-06T02:02:49;100331.78;;;-0.91;100.00
804;BME280;25687;49.976;8.240;2023-04-06T02:05:15;100328.41;;;-0.83;100.00
804;BME280;25687;49.976;8.240;2023-04-06T02:07:40;100332.59;;;-0.85;100.00
804;BME280;25687;49.976;8.240;2023-04-06T02:10:11;100330.97;;;-0.95;100.00
804;BME280;25687;49.976;8.240;2023-04-06T02:12:36;100338.53;;;-0.93;100.00
804;BME280;25687;49.976;8.240;2023-04-06T02:15:02;100336.00;;;-0.92;100.00
804;BME280;25687;49.976;8.240;2023-04-06T02:17:28;100336.03;;;-0.96;100.00
804;BME280;25687;49.976;8.240;2023-04-06T02:19:53;100333.47;;;-0.98;100.00
804;BME280;25687;49.976;8.240;2023-04-06T02:22:19;100338.56;;;-1.01;100.00
804;BME280;25687;49.976;8.240;2023-04-06T02:24:44;100336.00;;;-0.93;100.00
804;BME280;25687;49.976;8.240;2023-04-06T02:27:10;100330.97;;;-1.01;100.00
804;BME280;25687;49.976;8.240;2023-04-06T02:29:35;100332.69;;;-1.06;100.00
804;BME280;25687;49.976;8.240;2023-04-06T02:32:01;100333.53;;;-1.10;100.00
804;BME280;25687;49.976;8.240;2023-04-06T02:34:26;100331.00;;;-1.10;100.00
804;BME280;25687;49.976;8.240;2023-04-06T02:36:51;100327.66;;;-1.14;100.00
804;BME280;25687;49.976;8.240;2023-04-06T02:39:17;100327.66;;;-1.08;100.00
804;BME280;25687;49.976;8.240;2023-04-06T02:41:42;100331.00;;;-1.10;100.00
804;BME280;25687;49.976;8.240;2023-04-06T02:44:08;100325.13;;;-1.16;100.00
804;BME280;25687;49.976;8.240;2023-04-06T02:46:33;100321.78;;;-1.18;100.00
804;BME280;25687;49.976;8.240;2023-04-06T02:48:59;100325.16;;;-1.20;100.00
804;BME280;25687;49.976;8.240;2023-04-06T02:51:26;100327.66;;;-1.19;100.00
804;BME280;25687;49.976;8.240;2023-04-06T02:53:51;100328.53;;;-1.26;100.00
804;BME280;25687;49.976;8.240;2023-04-06T02:56:16;100319.25;;;-1.27;100.00
804;BME280;25687;49.976;8.240;2023-04-06T02:58:42;100318.44;;;-1.32;100.00
804;BME280;25687;49.976;8.240;2023-04-06T03:01:07;100320.09;;;-1.28;100.00
804;BME280;25687;49.976;8.240;2023-04-06T03:03:32;100320.09;;;-1.28;100.00
804;BME280;25687;49.976;8.240;2023-04-06T03:05:58;100322.63;;;-1.30;100.00
804;BME280;25687;49.976;8.240;2023-04-06T03:08:24;100319.28;;;-1.33;100.00
804;BME280;25687;49.976;8.240;2023-04-06T03:10:50;100323.50;;;-1.38;100.00
804;BME280;25687;49.976;8.240;2023-04-06T03:13:15;100320.94;;;-1.31;100.00
804;BME280;25687;49.976;8.240;2023-04-06T03:15:41;100320.94;;;-1.29;100.00
804;BME280;25687;49.976;8.240;2023-04-06T03:18:06;100321.81;;;-1.35;100.00
804;BME280;25687;49.976;8.240;2023-04-06T03:20:31;100318.47;;;-1.41;100.00
804;BME280;25687;49.976;8.240;2023-04-06T03:22:57;100322.69;;;-1.43;100.00
804;BME280;25687;49.976;8.240;2023-04-06T03:25:22;100321.00;;;-1.48;100.00
804;BME280;25687;49.976;8.240;2023-04-06T03:27:48;100323.53;;;-1.46;100.00
804;BME280;25687;49.976;8.240;2023-04-06T03:30:13;100324.34;;;-1.50;100.00
804;BME280;25687;49.976;8.240;2023-04-06T03:32:38;100333.63;;;-1.58;100.00
804;BME280;25687;49.976;8.240;2023-04-06T03:35:04;100323.53;;;-1.57;100.00
804;BME280;25687;49.976;8.240;2023-04-06T03:37:30;100329.41;;;-1.59;100.00
804;BME280;25687;49.976;8.240;2023-04-06T03:39:55;100326.06;;;-1.63;100.00
804;BME280;25687;49.976;8.240;2023-04-06T03:42:20;100329.41;;;-1.64;100.00
804;BME280;25687;49.976;8.240;2023-04-06T03:44:46;100327.72;;;-1.67;100.00
804;BME280;25687;49.976;8.240;2023-04-06T03:47:11;100331.94;;;-1.69;100.00
804;BME280;25687;49.976;8.240;2023-04-06T03:49:36;100328.59;;;-1.66;100.00
804;BME280;25687;49.976;8.240;2023-04-06T03:52:01;100330.25;;;-1.67;100.00
804;BME280;25687;49.976;8.240;2023-04-06T03:54:27;100335.31;;;-1.67;100.00
804;BME280;25687;49.976;8.240;2023-04-06T03:56:52;100337.00;;;-1.59;100.00
804;BME280;25687;49.976;8.240;2023-04-06T03:59:17;100339.50;;;-1.58;100.00
804;BME280;25687;49.976;8.240;2023-04-06T04:01:43;100339.50;;;-1.64;100.00
804;BME280;25687;49.976;8.240;2023-04-06T04:04:08;100335.28;;;-1.59;100.00
804;BME280;25687;49.976;8.240;2023-04-06T04:06:33;100337.81;;;-1.54;100.00
804;BME280;25687;49.976;8.240;2023-04-06T04:08:58;100339.50;;;-1.59;100.00
804;BME280;25687;49.976;8.240;2023-04-06T04:11:24;100342.03;;;-1.58;100.00
804;BME280;25687;49.976;8.240;2023-04-06T04:13:49;100340.34;;;-1.60;100.00
804;BME280;25687;49.976;8.240;2023-04-06T04:16:15;100344.56;;;-1.59;100.00
804;BME280;25687;49.976;8.240;2023-04-06T04:18:40;100347.09;;;-1.72;100.00
804;BME280;25687;49.976;8.240;2023-04-06T04:21:08;100347.94;;;-1.82;100.00
804;BME280;25687;49.976;8.240;2023-04-06T04:23:33;100346.22;;;-1.80;100.00
804;BME280;25687;49.976;8.240;2023-04-06T04:25:59;100352.13;;;-1.78;100.00
804;BME280;25687;49.976;8.240;2023-04-06T04:28:24;100353.81;;;-1.79;100.00
804;BME280;25687;49.976;8.240;2023-04-06T04:30:49;100352.13;;;-1.78;100.00
804;BME280;25687;49.976;8.240;2023-04-06T04:33:14;100347.06;;;-1.75;100.00
804;BME280;25687;49.976;8.240;2023-04-06T04:35:40;100353.81;;;-1.75;100.00
804;BME280;25687;49.976;8.240;2023-04-06T04:38:05;100358.84;;;-1.83;100.00
804;BME280;25687;49.976;8.240;2023-04-06T04:40:31;100358.84;;;-1.82;100.00
804;BME280;25687;49.976;8.240;2023-04-06T04:42:56;100356.31;;;-1.86;100.00
804;BME280;25687;49.976;8.240;2023-04-06T04:45:21;100352.97;;;-1.82;100.00
804;BME280;25687;49.976;8.240;2023-04-06T04:47:47;100358.84;;;-1.77;100.00
804;BME280;25687;49.976;8.240;2023-04-06T04:50:12;100352.13;;;-1.80;100.00
804;BME280;25687;49.976;8.240;2023-04-06T04:52:37;100351.28;;;-1.80;100.00
804;BME280;25687;49.976;8.240;2023-04-06T04:55:03;100362.22;;;-1.72;100.00
804;BME280;25687;49.976;8.240;2023-04-06T04:57:29;100363.88;;;-1.68;100.00
804;BME280;25687;49.976;8.240;2023-04-06T04:59:54;100361.38;;;-1.68;100.00
804;BME280;25687;49.976;8.240;2023-04-06T05:02:19;100360.53;;;-1.62;100.00
804;BME280;25687;49.976;8.240;2023-04-06T05:04:45;100360.53;;;-1.62;100.00
804;BME280;25687;49.976;8.240;2023-04-06T05:07:10;100358.84;;;-1.46;100.00
804;BME280;25687;49.976;8.240;2023-04-06T05:09:36;100363.88;;;-1.43;100.00
804;BME280;25687;49.976;8.240;2023-04-06T05:12:01;100363.88;;;-1.55;100.00
804;BME280;25687;49.976;8.240;2023-04-06T05:14:27;100366.41;;;-1.38;100.00
804;BME280;25687;49.976;8.240;2023-04-06T05:16:53;100364.72;;;-1.33;100.00
804;BME280;25687;49.976;8.240;2023-04-06T05:19:18;100367.25;;;-1.24;100.00
804;BME280;25687;49.976;8.240;2023-04-06T05:21:44;100366.34;;;-1.17;100.00
804;BME280;25687;49.976;8.240;2023-04-06T05:24:09;100367.19;;;-1.08;100.00
804;BME280;25687;49.976;8.240;2023-04-06T05:26:34;100365.53;;;-1.12;100.00
804;BME280;25687;49.976;8.240;2023-04-06T05:29:00;100368.84;;;-0.96;100.00
804;BME280;25687;49.976;8.240;2023-04-06T05:31:26;100365.44;;;-0.86;100.00
804;BME280;25687;49.976;8.240;2023-04-06T05:33:51;100367.06;;;-0.71;100.00
804;BME280;25687;49.976;8.240;2023-04-06T05:36:17;100367.06;;;-0.62;100.00
804;BME280;25687;49.976;8.240;2023-04-06T05:38:42;100368.69;;;-0.52;100.00
804;BME280;25687;49.976;8.240;2023-04-06T05:41:07;100371.16;;;-0.39;100.00
804;BME280;25687;49.976;8.240;2023-04-06T05:43:32;100380.38;;;-0.29;100.00
804;BME280;25687;49.976;8.240;2023-04-06T05:45:58;100380.38;;;-0.29;100.00
804;BME280;25687;49.976;8.240;2023-04-06T05:48:23;100376.03;;;-0.11;100.00
804;BME280;25687;49.976;8.240;2023-04-06T05:50:49;100373.41;;;0.07;100.00
804;BME280;25687;49.976;8.240;2023-04-06T05:53:15;100375.00;;;0.21;100.00
804;BME280;25687;49.976;8.240;2023-04-06T05:55:41;100374.91;;;0.36;100.00
804;BME280;25687;49.976;8.240;2023-04-06T05:58:06;100376.44;;;0.51;100.00
804;BME280;25687;49.976;8.240;2023-04-06T06:00:31;100375.50;;;0.63;100.00
804;BME280;25687;49.976;8.240;2023-04-06T06:02:56;100367.75;;;0.77;100.00
804;BME280;25687;49.976;8.240;2023-04-06T06:05:22;100376.91;;;0.92;100.00
804;BME280;25687;49.976;8.240;2023-04-06T06:07:47;100377.63;;;1.05;100.00
804;BME280;25687;49.976;8.240;2023-04-06T06:10:12;100370.66;;;1.22;100.00
804;BME280;25687;49.976;8.240;2023-04-06T06:12:38;100375.50;;;1.41;100.00
804;BME280;25687;49.976;8.240;2023-04-06T06:15:03;100373.56;;;1.60;100.00
804;BME280;25687;49.976;8.240;2023-04-06T06:17:29;100369.97;;;1.78;100.00
804;BME280;25687;49.976;8.240;2023-04-06T06:19:54;100364.88;;;1.78;100.00
804;BME280;25687;49.976;8.240;2023-04-06T06:22:20;100373.28;;;1.83;100.00
804;BME280;25687;49.976;8.240;2023-04-06T06:24:45;100372.28;;;1.92;100.00
804;BME280;25687;49.976;8.240;2023-04-06T06:27:10;100372.06;;;2.09;100.00
804;BME280;25687;49.976;8.240;2023-04-06T06:29:36;100379.59;;;2.12;100.00
804;BME280;25687;49.976;8.240;2023-04-06T06:32:01;100366.03;;;2.16;100.00
804;BME280;25687;49.976;8.240;2023-04-06T06:34:26;100379.75;;;2.03;100.00
804;BME280;25687;49.976;8.240;2023-04-06T06:36:52;100371.22;;;2.08;100.00
804;BME280;25687;49.976;8.240;2023-04-06T06:39:19;100373.41;;;2.30;100.00
804;BME280;25687;49.976;8.240;2023-04-06T06:41:45;100369.59;;;2.57;100.00
804;BME280;25687;49.976;8.240;2023-04-06T06:44:10;100373.66;;;3.13;100.00
804;BME280;25687;49.976;8.240;2023-04-06T06:46:35;100370.19;;;3.99;100.00
804;BME280;25687;49.976;8.240;2023-04-06T06:49:01;100366.69;;;4.72;96.68
804;BME280;25687;49.976;8.240;2023-04-06T06:51:26;100365.59;;;5.74;90.89
804;BME280;25687;49.976;8.240;2023-04-06T06:53:51;100363.13;;;7.27;75.41
804;BME280;25687;49.976;8.240;2023-04-06T06:56:17;100371.16;;;8.51;63.64
804;BME280;25687;49.976;8.240;2023-04-06T06:58:42;100362.31;;;10.11;53.43
804;BME280;25687;49.976;8.240;2023-04-06T07:01:07;100353.50;;;11.19;49.73
804;BME280;25687;49.976;8.240;2023-04-06T07:03:33;100349.25;;;11.82;44.42
804;BME280;25687;49.976;8.240;2023-04-06T07:05:59;100355.88;;;12.02;44.38
804;BME280;25687;49.976;8.240;2023-04-06T07:08:24;100351.72;;;12.89;40.99
804;BME280;25687;49.976;8.240;2023-04-06T07:10:51;100352.44;;;13.20;40.66
804;BME280;25687;49.976;8.240;2023-04-06T07:13:21;100354.03;;;14.58;37.38
804;BME280;25687;49.976;8.240;2023-04-06T07:15:48;100349.78;;;15.08;36.75
804;BME280;25687;49.976;8.240;2023-04-06T07:18:14;100354.69;;;15.24;35.28
804;BME280;25687;49.976;8.240;2023-04-06T07:20:39;100361.03;;;15.20;35.71
804;BME280;25687;49.976;8.240;2023-04-06T07:23:05;100355.50;;;15.62;35.06
804;BME280;25687;49.976;8.240;2023-04-06T07:25:30;100364.06;;;16.00;33.12
804;BME280;25687;49.976;8.240;2023-04-06T07:27:56;100362.72;;;15.08;34.44
804;BME280;25687;49.976;8.240;2023-04-06T07:30:21;100365.72;;;15.52;34.21
804;BME280;25687;49.976;8.240;2023-04-06T07:32:47;100354.22;;;17.08;32.58
804;BME280;25687;49.976;8.240;2023-04-06T07:35:14;100362.41;;;16.34;32.42
804;BME280;25687;49.976;8.240;2023-04-06T07:37:40;100365.44;;;15.92;33.32
804;BME280;25687;49.976;8.240;2023-04-06T07:40:06;100362.44;;;17.36;31.23
804;BME280;25687;49.976;8.240;2023-04-06T07:42:32;100366.53;;;16.25;30.93
804;BME280;25687;49.976;8.240;2023-04-06T07:44:58;100363.50;;;15.59;31.95
804;BME280;25687;49.976;8.240;2023-04-06T07:47:23;100358.78;;;14.38;34.62
804;BME280;25687;49.976;8.240;2023-04-06T07:49:48;100367.28;;;15.05;33.90
804;BME280;25687;49.976;8.240;2023-04-06T07:52:14;100365.84;;;15.99;32.85
804;BME280;25687;49.976;8.240;2023-04-06T07:54:40;100363.16;;;16.48;31.84
804;BME280;25687;49.976;8.240;2023-04-06T07:57:06;100359.84;;;16.68;30.71
804;BME280;25687;49.976;8.240;2023-04-06T07:59:32;100368.13;;;14.92;32.32
804;BME280;25687;49.976;8.240;2023-04-06T08:01:57;100354.50;;;15.27;32.03
804;BME280;25687;49.976;8.240;2023-04-06T08:04:22;100355.50;;;16.57;30.56
804;BME280;25687;49.976;8.240;2023-04-06T08:06:47;100358.84;;;16.24;31.38
804;BME280;25687;49.976;8.240;2023-04-06T08:09:13;100351.16;;;16.22;32.75
804;BME280;25687;49.976;8.240;2023-04-06T08:11:38;100358.34;;;17.22;31.07
804;BME280;25687;49.976;8.240;2023-04-06T08:14:03;100361.28;;;16.61;30.75
804;BME280;25687;49.976;8.240;2023-04-06T08:16:29;100356.88;;;15.17;33.17
804;BME280;25687;49.976;8.240;2023-04-06T08:18:54;100357.69;;;16.39;30.03
804;BME280;25687;49.976;8.240;2023-04-06T08:21:20;100361.69;;;17.02;30.07
804;BME280;25687;49.976;8.240;2023-04-06T08:23:45;100363.09;;;17.61;30.21
804;BME280;25687;49.976;8.240;2023-04-06T08:26:11;100364.56;;;17.86;29.23
804;BME280;25687;49.976;8.240;2023-04-06T08:28:37;100362.81;;;18.08;28.43
804;BME280;25687;49.976;8.240;2023-04-06T08:31:06;100368.69;;;17.56;27.59
804;BME280;25687;49.976;8.240;2023-04-06T08:33:33;100366.00;;;18.12;27.67
804;BME280;25687;49.976;8.240;2023-04-06T08:36:13;100368.03;;;19.12;26.45
804;BME280;25687;49.976;8.240;2023-04-06T08:38:39;100366.50;;;18.05;27.37
804;BME280;25687;49.976;8.240;2023-04-06T08:41:09;100373.66;;;18.25;27.32
804;BME280;25687;49.976;8.240;2023-04-06T08:43:42;100372.34;;;18.19;28.26
804;BME280;25687;49.976;8.240;2023-04-06T08:46:08;100371.00;;;16.35;31.21
804;BME280;25687;49.976;8.240;2023-04-06T08:48:34;100369.69;;;18.51;30.07
804;BME280;25687;49.976;8.240;2023-04-06T08:51:01;100366.06;;;18.43;28.80
804;BME280;25687;49.976;8.240;2023-04-06T08:53:27;100357.19;;;18.24;28.67
804;BME280;25687;49.976;8.240;2023-04-06T08:55:53;100359.75;;;17.26;29.80
804;BME280;25687;49.976;8.240;2023-04-06T08:58:20;100360.47;;;17.72;29.57
804;BME280;25687;49.976;8.240;2023-04-06T09:00:46;100366.00;;;16.67;30.86
804;BME280;25687;49.976;8.240;2023-04-06T09:03:12;100359.97;;;16.78;31.05
804;BME280;25687;49.976;8.240;2023-04-06T09:05:38;100368.78;;;16.30;31.71
804;BME280;25687;49.976;8.240;2023-04-06T09:08:04;100355.97;;;18.28;30.39
804;BME280;25687;49.976;8.240;2023-04-06T09:10:32;100362.22;;;17.39;30.50
804;BME280;25687;49.976;8.240;2023-04-06T09:13:05;100358.41;;;18.72;28.51
804;BME280;25687;49.976;8.240;2023-04-06T09:15:30;100365.44;;;18.81;29.14
804;BME280;25687;49.976;8.240;2023-04-06T09:17:56;100357.63;;;18.29;29.00
804;BME280;25687;49.976;8.240;2023-04-06T09:20:23;100360.03;;;17.88;30.62
804;BME280;25687;49.976;8.240;2023-04-06T09:22:50;100354.09;;;19.23;27.97
804;BME280;25687;49.976;8.240;2023-04-06T09:25:21;100353.84;;;18.01;28.92
804;BME280;25687;49.976;8.240;2023-04-06T09:27:48;100360.66;;;18.13;30.38
804;BME280;25687;49.976;8.240;2023-04-06T09:30:15;100350.53;;;20.32;28.47
804;BME280;25687;49.976;8.240;2023-04-06T09:32:55;100350.06;;;18.26;29.45
804;BME280;25687;49.976;8.240;2023-04-06T09:35:21;100343.38;;;19.36;29.57
804;BME280;25687;49.976;8.240;2023-04-06T09:37:47;100343.66;;;19.33;29.17
804;BME280;25687;49.976;8.240;2023-04-06T09:40:14;100345.44;;;19.32;29.95
804;BME280;25687;49.976;8.240;2023-04-06T09:42:41;100347.16;;;20.12;28.67
804;BME280;25687;49.976;8.240;2023-04-06T09:45:07;100347.97;;;20.03;27.95
804;BME280;25687;49.976;8.240;2023-04-06T09:47:44;100342.16;;;18.90;29.85
804;BME280;25687;49.976;8.240;2023-04-06T09:50:13;100343.81;;;19.61;28.97
804;BME280;25687;49.976;8.240;2023-04-06T09:52:50;100347.16;;;17.87;29.88
804;BME280;25687;49.976;8.240;2023-04-06T09:55:45;100335.09;;;18.18;30.03
804;BME280;25687;49.976;8.240;2023-04-06T09:58:16;100336.94;;;17.41;32.71
804;BME280;25687;49.976;8.240;2023-04-06T10:01:00;100340.13;;;17.34;32.56
804;BME280;25687;49.976;8.240;2023-04-06T10:03:52;100333.16;;;19.03;29.90
804;BME280;25687;49.976;8.240;2023-04-06T10:06:22;100336.34;;;17.38;32.31
804;BME280;25687;49.976;8.240;2023-04-06T10:08:51;100334.91;;;18.62;31.90
804;BME280;25687;49.976;8.240;2023-04-06T10:11:19;100335.19;;;19.70;30.31
804;BME280;25687;49.976;8.240;2023-04-06T10:13:45;100327.44;;;19.19;29.57
804;BME280;25687;49.976;8.240;2023-04-06T10:16:13;100325.84;;;18.35;32.09
804;BME280;25687;49.976;8.240;2023-04-06T10:18:44;100318.44;;;19.82;29.56
804;BME280;25687;49.976;8.240;2023-04-06T10:21:16;100315.59;;;21.08;27.39
804;BME280;25687;49.976;8.240;2023-04-06T10:23:49;100323.16;;;17.83;30.04
804;BME280;25687;49.976;8.240;2023-04-06T10:26:17;100322.66;;;16.34;34.19
804;BME280;25687;49.976;8.240;2023-04-06T10:28:47;100327.19;;;16.07;33.44
804;BME280;25687;49.976;8.240;2023-04-06T10:31:12;100314.94;;;15.37;34.74
804;BME280;25687;49.976;8.240;2023-04-06T10:33:38;100315.91;;;14.34;37.22
804;BME280;25687;49.976;8.240;2023-04-06T10:36:22;100320.78;;;14.90;37.62
804;BME280;25687;49.976;8.240;2023-04-06T10:38:55;100316.41;;;15.89;37.13
804;BME280;25687;49.976;8.240;2023-04-06T10:41:21;100311.25;;;15.28;36.04
804;BME280;25687;49.976;8.240;2023-04-06T10:43:55;100313.44;;;14.45;38.88
804;BME280;25687;49.976;8.240;2023-04-06T10:46:26;100311.00;;;14.03;37.53
804;BME280;25687;49.976;8.240;2023-04-06T10:48:51;100300.09;;;14.51;37.64
804;BME280;25687;49.976;8.240;2023-04-06T10:51:18;100300.25;;;13.97;39.39
804;BME280;25687;49.976;8.240;2023-04-06T10:53:45;100293.97;;;14.27;39.18
804;BME280;25687;49.976;8.240;2023-04-06T10:56:13;100299.28;;;13.98;40.20
804;BME280;25687;49.976;8.240;2023-04-06T10:58:52;100293.00;;;14.02;38.80
804;BME280;25687;49.976;8.240;2023-04-06T11:01:19;100291.59;;;14.75;39.11
804;BME280;25687;49.976;8.240;2023-04-06T11:03:54;100286.56;;;15.35;38.38
804;BME280;25687;49.976;8.240;2023-04-06T11:06:20;100289.94;;;14.48;38.75
804;BME280;25687;49.976;8.240;2023-04-06T11:08:45;100290.94;;;14.07;40.39
804;BME280;25687;49.976;8.240;2023-04-06T11:11:13;100288.41;;;13.25;41.18
804;BME280;25687;49.976;8.240;2023-04-06T11:16:30;100285.19;;;13.76;41.77
804;BME280;25687;49.976;8.240;2023-04-06T11:21:44;100272.47;;;14.65;39.14
804;BME280;25687;49.976;8.240;2023-04-06T11:24:24;100278.03;;;14.46;37.83
804;BME280;25687;49.976;8.240;2023-04-06T11:26:59;100271.19;;;14.58;38.99
804;BME280;25687;49.976;8.240;2023-04-06T11:29:27;100258.66;;;14.39;38.03
804;BME280;25687;49.976;8.240;2023-04-06T11:32:03;100261.75;;;13.92;38.38
804;BME280;25687;49.976;8.240;2023-04-06T11:34:30;100257.22;;;13.55;40.34
804;BME280;25687;49.976;8.240;2023-04-06T11:37:01;100249.13;;;13.75;39.38
804;BME280;25687;49.976;8.240;2023-04-06T11:39:28;100246.63;;;14.63;39.12
804;BME280;25687;49.976;8.240;2023-04-06T11:41:57;100252.16;;;14.33;38.85
804;BME280;25687;49.976;8.240;2023-04-06T11:44:35;100238.34;;;14.58;39.61
804;BME280;25687;49.976;8.240;2023-04-06T11:47:02;100234.53;;;14.51;37.53
804;BME280;25687;49.976;8.240;2023-04-06T11:49:28;100235.06;;;14.69;37.84
804;BME280;25687;49.976;8.240;2023-04-06T11:51:55;100231.13;;;13.86;38.19
804;BME280;25687;49.976;8.240;2023-04-06T11:54:34;100232.06;;;13.98;38.98
804;BME280;25687;49.976;8.240;2023-04-06T11:57:00;100227.50;;;14.66;38.79
804;BME280;25687;49.976;8.240;2023-04-06T11:59:26;100229.47;;;14.49;37.51
804;BME280;25687;49.976;8.240;2023-04-06T12:01:52;100222.13;;;14.93;37.54
804;BME280;25687;49.976;8.240;2023-04-06T12:04:18;100221.97;;;14.83;36.64
804;BME280;25687;49.976;8.240;2023-04-06T12:06:43;100227.09;;;14.08;37.56
804;BME280;25687;49.976;8.240;2023-04-06T12:09:09;100222.16;;;14.30;38.55
804;BME280;25687;49.976;8.240;2023-04-06T12:11:34;100223.22;;;14.78;37.68
804;BME280;25687;49.976;8.240;2023-04-06T12:14:00;100220.41;;;14.81;36.67
804;BME280;25687;49.976;8.240;2023-04-06T12:16:26;100213.88;;;14.25;37.11
804;BME280;25687;49.976;8.240;2023-04-06T12:18:52;100212.41;;;15.21;37.14
804;BME280;25687;49.976;8.240;2023-04-06T12:21:17;100213.72;;;14.65;37.59
804;BME280;25687;49.976;8.240;2023-04-06T12:23:42;100212.72;;;14.29;37.36
804;BME280;25687;49.976;8.240;2023-04-06T12:26:08;100212.09;;;14.00;37.13
804;BME280;25687;49.976;8.240;2023-04-06T12:28:33;100209.72;;;14.10;38.49
804;BME280;25687;49.976;8.240;2023-04-06T12:30:59;100206.72;;;13.77;37.07
804;BME280;25687;49.976;8.240;2023-04-06T12:33:24;100204.13;;;14.29;37.67
804;BME280;25687;49.976;8.240;2023-04-06T12:35:50;100203.53;;;14.25;37.05
804;BME280;25687;49.976;8.240;2023-04-06T12:38:15;100197.81;;;14.33;35.33
804;BME280;25687;49.976;8.240;2023-04-06T12:40:41;100197.78;;;14.59;36.57
804;BME280;25687;49.976;8.240;2023-04-06T12:43:06;100186.03;;;14.79;36.58
804;BME280;25687;49.976;8.240;2023-04-06T12:45:32;100193.72;;;15.05;35.44
804;BME280;25687;49.976;8.240;2023-04-06T12:47:58;100188.97;;;15.23;35.73
804;BME280;25687;49.976;8.240;2023-04-06T12:50:23;100184.94;;;14.94;35.17
804;BME280;25687;49.976;8.240;2023-04-06T12:52:48;100179.38;;;15.12;35.52
804;BME280;25687;49.976;8.240;2023-04-06T12:55:14;100179.00;;;15.29;35.80
804;BME280;25687;49.976;8.240;2023-04-06T12:57:39;100177.75;;;15.11;33.93
804;BME280;25687;49.976;8.240;2023-04-06T13:00:06;100178.38;;;14.64;34.94
804;BME280;25687;49.976;8.240;2023-04-06T13:02:32;100177.75;;;14.36;36.41
804;BME280;25687;49.976;8.240;2023-04-06T13:04:57;100172.97;;;14.17;36.06
804;BME280;25687;49.976;8.240;2023-04-06T13:07:23;100172.81;;;14.71;36.23
804;BME280;25687;49.976;8.240;2023-04-06T13:09:48;100165.72;;;14.85;36.07